sensor_id;sensor_type;location;lat;lon;timestamp;pressure;altitude;pressure_sealevel;temperature;humidity
74327;BME280;62745;51.060;13.786;2023-01-10T00:00:20;99553.63;;;6.05;80.12
74327;BME280;62745;51.060;13.786;2023-01-10T00:02:46;99562.31;;;6.14;80.28
74327;BME280;62745;51.060;13.786;2023-01-10T00:05:11;99572.09;;;6.13;79.84
74327;BME280;62745;51.060;13.786;2023-01-10T00:07:36;99576.59;;;6.13;80.25
74327;BME280;62745;51.060;13.786;2023-01-10T00:10:02;99573.09;;;6.12;79.91
74327;BME280;62745;51.060;13.786;2023-01-10T00:12:27;99586.19;;;6.14;79.71
74327;BME280;62745;51.060;13.786;2023-01-10T00:15:11;99583.16;;;6.17;79.32
74327;BME280;62745;51.060;13.786;2023-01-10T00:17:36;99585.00;;;6.16;79.92
74327;BME280;62745;51.060;13.786;2023-01-10T00:20:02;99595.41;;;6.18;80.03
74327;BME280;62745;51.060;13.786;2023-01-10T00:22:27;99599.63;;;6.12;79.82
74327;BME280;62745;51.060;13.786;2023-01-10T00:24:52;99595.31;;;6.11;80.37
74327;BME280;62745;51.060;13.786;2023-01-10T00:27:17;99609.63;;;6.25;79.94
74327;BME280;62745;51.060;13.786;2023-01-10T00:29:46;99607.22;;;6.15;79.89
74327;BME280;62745;51.060;13.786;2023-01-10T00:32:12;99604.28;;;6.10;79.94
74327;BME280;62745;51.060;13.786;2023-01-10T00:34:37;99608.63;;;6.03;80.37
74327;BME280;62745;51.060;13.786;2023-01-10T00:37:02;99615.78;;;6.02;80.05
74327;BME280;62745;51.060;13.786;2023-01-10T00:39:28;99617.59;;;6.02;80.14
74327;BME280;62745;51.060;13.786;2023-01-10T00:41:53;99628.19;;;6.02;80.34
74327;BME280;62745;51.060;13.786;2023-01-10T00:44:37;99624.38;;;6.04;80.42
74327;BME280;62745;51.060;13.786;2023-01-10T00:47:02;99629.38;;;5.99;80.16
74327;BME280;62745;51.060;13.786;2023-01-10T00:49:27;99637.94;;;6.10;80.43
74327;BME280;62745;51.060;13.786;2023-01-10T00:51:53;99645.75;;;6.03;80.56
74327;BME280;62745;51.060;13.786;2023-01-10T00:54:22;99650.41;;;6.01;80.37
74327;BME280;62745;51.060;13.786;2023-01-10T00:56:47;99656.38;;;6.03;80.16
74327;BME280;62745;51.060;13.786;2023-01-10T00:59:13;99667.97;;;6.02;80.37
74327;BME280;62745;51.060;13.786;2023-01-10T01:01:38;99670.16;;;5.98;80.81
74327;BME280;62745;51.060;13.786;2023-01-10T01:04:03;99667.69;;;5.97;80.77
74327;BME280;62745;51.060;13.786;2023-01-10T01:06:28;99677.75;;;6.01;80.80
74327;BME280;62745;51.060;13.786;2023-01-10T01:08:54;99678.56;;;6.02;80.06
74327;BME280;62745;51.060;13.786;2023-01-10T01:11:19;99687.72;;;5.99;80.36
74327;BME280;62745;51.060;13.786;2023-01-10T01:13:44;99685.41;;;5.96;80.53
74327;BME280;62745;51.060;13.786;2023-01-10T01:16:10;99692.72;;;5.94;80.39
74327;BME280;62745;51.060;13.786;2023-01-10T01:18:35;99697.22;;;5.94;80.33
74327;BME280;62745;51.060;13.786;2023-01-10T01:21:00;99715.22;;;5.98;80.28
74327;BME280;62745;51.060;13.786;2023-01-10T01:23:28;99718.06;;;5.97;80.18
74327;BME280;62745;51.060;13.786;2023-01-10T01:25:55;99723.00;;;6.00;80.51
74327;BME280;62745;51.060;13.786;2023-01-10T01:28:21;99724.00;;;5.99;80.37
74327;BME280;62745;51.060;13.786;2023-01-10T01:30:47;99725.53;;;5.93;81.01
74327;BME280;62745;51.060;13.786;2023-01-10T01:33:12;99730.13;;;5.99;80.43
74327;BME280;62745;51.060;13.786;2023-01-10T01:35:41;99735.31;;;5.93;80.67
74327;BME280;62745;51.060;13.786;2023-01-10T01:38:06;99723.38;;;5.89;80.59
74327;BME280;62745;51.060;13.786;2023-01-10T01:40:32;99735.63;;;5.98;80.86
74327;BME280;62745;51.060;13.786;2023-01-10T01:42:57;99736.97;;;5.94;80.76
74327;BME280;62745;51.060;13.786;2023-01-10T01:48:08;99733.50;;;5.93;80.77
74327;BME280;62745;51.060;13.786;2023-01-10T01:50:54;99741.94;;;5.89;80.69
74327;BME280;62745;51.060;13.786;2023-01-10T01:53:26;99747.75;;;5.92;81.25
74327;BME280;62745;51.060;13.786;2023-01-10T01:55:56;99744.28;;;5.92;81.17
74327;BME280;62745;51.060;13.786;2023-01-10T01:58:28;99748.41;;;5.86;81.55
74327;BME280;62745;51.060;13.786;2023-01-10T02:00:56;99754.53;;;5.87;81.10
74327;BME280;62745;51.060;13.786;2023-01-10T02:03:23;99738.56;;;5.72;81.77
74327;BME280;62745;51.060;13.786;2023-01-10T02:05:58;99741.78;;;5.82;81.30
74327;BME280;62745;51.060;13.786;2023-01-10T02:08:24;99754.38;;;5.88;81.48
74327;BME280;62745;51.060;13.786;2023-01-10T02:11:02;99755.69;;;5.84;81.51
74327;BME280;62745;51.060;13.786;2023-01-10T02:13:31;99765.47;;;5.84;82.02
74327;BME280;62745;51.060;13.786;2023-01-10T02:15:57;99765.00;;;5.80;81.52
74327;BME280;62745;51.060;13.786;2023-01-10T02:18:24;99766.66;;;5.81;81.70
74327;BME280;62745;51.060;13.786;2023-01-10T02:24:57;99767.47;;;5.82;81.11
74327;BME280;62745;51.060;13.786;2023-01-10T02:27:18;99775.78;;;5.79;81.78
74327;BME280;62745;51.060;13.786;2023-01-10T02:33:05;99779.44;;;5.78;81.66
74327;BME280;62745;51.060;13.786;2023-01-10T02:35:45;99777.97;;;5.75;81.78
74327;BME280;62745;51.060;13.786;2023-01-10T02:41:55;99785.91;;;5.75;81.60
74327;BME280;62745;51.060;13.786;2023-01-10T02:44:30;99794.22;;;5.72;81.64
74327;BME280;62745;51.060;13.786;2023-01-10T02:47:02;99791.22;;;5.75;81.50
74327;BME280;62745;51.060;13.786;2023-01-10T02:49:28;99797.00;;;5.70;82.03
74327;BME280;62745;51.060;13.786;2023-01-10T02:51:54;99787.75;;;5.66;82.69
74327;BME280;62745;51.060;13.786;2023-01-10T02:54:25;99800.53;;;5.63;83.63
74327;BME280;62745;51.060;13.786;2023-01-10T02:56:59;99803.00;;;5.64;83.46
74327;BME280;62745;51.060;13.786;2023-01-10T02:59:53;99810.28;;;5.62;84.30
74327;BME280;62745;51.060;13.786;2023-01-10T03:02:41;99819.75;;;5.57;83.92
74327;BME280;62745;51.060;13.786;2023-01-10T03:10:39;99838.16;;;5.50;84.77
74327;BME280;62745;51.060;13.786;2023-01-10T03:13:29;99827.41;;;5.43;85.22
74327;BME280;62745;51.060;13.786;2023-01-10T03:15:56;99839.66;;;5.44;85.04
74327;BME280;62745;51.060;13.786;2023-01-10T03:18:26;99860.16;;;5.51;85.15
74327;BME280;62745;51.060;13.786;2023-01-10T03:20:53;99853.22;;;5.50;85.86
74327;BME280;62745;51.060;13.786;2023-01-10T03:23:22;99865.97;;;5.46;86.70
74327;BME280;62745;51.060;13.786;2023-01-10T03:25:48;99867.16;;;5.43;86.34
74327;BME280;62745;51.060;13.786;2023-01-10T03:28:18;99861.66;;;5.45;86.79
74327;BME280;62745;51.060;13.786;2023-01-10T03:31:09;99876.41;;;5.48;85.64
74327;BME280;62745;51.060;13.786;2023-01-10T03:33:36;99877.56;;;5.45;85.64
74327;BME280;62745;51.060;13.786;2023-01-10T03:36:28;99883.00;;;5.52;86.12
74327;BME280;62745;51.060;13.786;2023-01-10T03:39:06;99892.28;;;5.48;86.36
74327;BME280;62745;51.060;13.786;2023-01-10T03:42:04;99896.09;;;5.53;85.61
74327;BME280;62745;51.060;13.786;2023-01-10T03:44:39;99897.59;;;5.48;85.80
74327;BME280;62745;51.060;13.786;2023-01-10T03:49:43;99913.31;;;5.57;86.01
74327;BME280;62745;51.060;13.786;2023-01-10T03:52:13;99917.13;;;5.55;85.72
74327;BME280;62745;51.060;13.786;2023-01-10T03:54:41;99925.91;;;5.55;86.17
74327;BME280;62745;51.060;13.786;2023-01-10T03:57:07;99928.69;;;5.54;85.34
74327;BME280;62745;51.060;13.786;2023-01-10T03:59:32;99932.53;;;5.59;85.67
74327;BME280;62745;51.060;13.786;2023-01-10T04:01:57;99930.22;;;5.56;85.55
74327;BME280;62745;51.060;13.786;2023-01-10T04:04:23;99932.03;;;5.56;85.51
74327;BME280;62745;51.060;13.786;2023-01-10T04:06:48;99926.41;;;5.59;85.48
74327;BME280;62745;51.060;13.786;2023-01-10T04:09:13;99939.81;;;5.57;85.28
74327;BME280;62745;51.060;13.786;2023-01-10T04:11:38;99937.47;;;5.54;84.83
74327;BME280;62745;51.060;13.786;2023-01-10T04:14:04;99953.56;;;5.61;84.50
74327;BME280;62745;51.060;13.786;2023-01-10T04:16:29;99949.75;;;5.55;84.93
74327;BME280;62745;51.060;13.786;2023-01-10T04:18:55;99947.94;;;5.56;85.10
74327;BME280;62745;51.060;13.786;2023-01-10T04:21:20;99957.38;;;5.58;85.42
74327;BME280;62745;51.060;13.786;2023-01-10T04:23:45;99951.59;;;5.55;84.97
74327;BME280;62745;51.060;13.786;2023-01-10T04:26:10;99962.50;;;5.60;85.21
74327;BME280;62745;51.060;13.786;2023-01-10T04:28:36;99973.09;;;5.60;85.18
74327;BME280;62745;51.060;13.786;2023-01-10T04:31:01;99976.22;;;5.63;84.58
74327;BME280;62745;51.060;13.786;2023-01-10T04:33:27;99985.50;;;5.67;83.89
74327;BME280;62745;51.060;13.786;2023-01-10T04:35:52;99996.59;;;5.63;84.52
74327;BME280;62745;51.060;13.786;2023-01-10T04:38:18;100000.56;;;5.67;84.14
74327;BME280;62745;51.060;13.786;2023-01-10T04:40:43;100011.03;;;5.60;84.45
74327;BME280;62745;51.060;13.786;2023-01-10T04:43:10;100020.78;;;5.68;84.08
74327;BME280;62745;51.060;13.786;2023-01-10T04:45:35;100027.25;;;5.65;84.08
74327;BME280;62745;51.060;13.786;2023-01-10T04:48:01;100032.38;;;5.67;84.29
74327;BME280;62745;51.060;13.786;2023-01-10T04:50:26;100032.84;;;5.70;83.52
74327;BME280;62745;51.060;13.786;2023-01-10T04:52:52;100032.84;;;5.70;83.74
74327;BME280;62745;51.060;13.786;2023-01-10T04:55:17;100037.00;;;5.65;84.39
74327;BME280;62745;51.060;13.786;2023-01-10T04:57:43;100031.56;;;5.58;84.20
74327;BME280;62745;51.060;13.786;2023-01-10T05:00:09;100038.69;;;5.58;84.54
74327;BME280;62745;51.060;13.786;2023-01-10T05:02:34;100038.50;;;5.59;84.38
74327;BME280;62745;51.060;13.786;2023-01-10T05:05:00;100052.91;;;5.65;85.03
74327;BME280;62745;51.060;13.786;2023-01-10T05:07:25;100062.19;;;5.69;83.84
74327;BME280;62745;51.060;13.786;2023-01-10T05:09:51;100068.13;;;5.71;84.68
74327;BME280;62745;51.060;13.786;2023-01-10T05:12:16;100063.50;;;5.65;84.09
74327;BME280;62745;51.060;13.786;2023-01-10T05:14:41;100057.56;;;5.55;83.84
74327;BME280;62745;51.060;13.786;2023-01-10T05:17:07;100075.09;;;5.64;83.98
74327;BME280;62745;51.060;13.786;2023-01-10T05:19:32;100078.91;;;5.61;84.27
74327;BME280;62745;51.060;13.786;2023-01-10T05:21:57;100075.44;;;5.61;83.94
74327;BME280;62745;51.060;13.786;2023-01-10T05:24:22;100080.22;;;5.65;83.28
74327;BME280;62745;51.060;13.786;2023-01-10T05:26:48;100096.16;;;5.73;83.67
74327;BME280;62745;51.060;13.786;2023-01-10T05:29:13;100097.28;;;5.71;83.31
74327;BME280;62745;51.060;13.786;2023-01-10T05:31:39;100096.63;;;5.69;83.84
74327;BME280;62745;51.060;13.786;2023-01-10T05:34:04;100107.88;;;5.71;83.43
74327;BME280;62745;51.060;13.786;2023-01-10T05:36:30;100109.06;;;5.68;83.82
74327;BME280;62745;51.060;13.786;2023-01-10T05:38:55;100114.53;;;5.67;83.64
74327;BME280;62745;51.060;13.786;2023-01-10T05:41:30;100117.34;;;5.65;83.63
74327;BME280;62745;51.060;13.786;2023-01-10T05:43:55;100120.16;;;5.64;84.01
74327;BME280;62745;51.060;13.786;2023-01-10T05:46:20;100130.41;;;5.67;84.14
74327;BME280;62745;51.060;13.786;2023-01-10T05:48:45;100137.38;;;5.68;84.76
74327;BME280;62745;51.060;13.786;2023-01-10T05:51:11;100135.56;;;5.60;84.96
74327;BME280;62745;51.060;13.786;2023-01-10T05:53:36;100135.72;;;5.59;84.62
74327;BME280;62745;51.060;13.786;2023-01-10T05:56:02;100146.97;;;5.61;84.86
74327;BME280;62745;51.060;13.786;2023-01-10T05:58:28;100145.31;;;5.60;85.23
74327;BME280;62745;51.060;13.786;2023-01-10T06:00:55;100151.63;;;5.59;85.28
74327;BME280;62745;51.060;13.786;2023-01-10T06:03:21;100150.63;;;5.60;84.88
74327;BME280;62745;51.060;13.786;2023-01-10T06:05:46;100162.56;;;5.64;84.72
74327;BME280;62745;51.060;13.786;2023-01-10T06:08:11;100165.53;;;5.61;84.82
74327;BME280;62745;51.060;13.786;2023-01-10T06:10:37;100167.03;;;5.55;84.70
74327;BME280;62745;51.060;13.786;2023-01-10T06:13:02;100178.63;;;5.62;84.47
74327;BME280;62745;51.060;13.786;2023-01-10T06:15:29;100184.56;;;5.64;84.33
74327;BME280;62745;51.060;13.786;2023-01-10T06:17:54;100170.84;;;5.61;84.25
74327;BME280;62745;51.060;13.786;2023-01-10T06:20:19;100184.41;;;5.58;84.47
74327;BME280;62745;51.060;13.786;2023-01-10T06:22:45;100193.03;;;5.68;84.34
74327;BME280;62745;51.060;13.786;2023-01-10T06:25:11;100195.84;;;5.66;84.89
74327;BME280;62745;51.060;13.786;2023-01-10T06:27:39;100201.97;;;5.67;84.36
74327;BME280;62745;51.060;13.786;2023-01-10T06:30:05;100197.81;;;5.64;84.60
74327;BME280;62745;51.060;13.786;2023-01-10T06:32:30;100206.94;;;5.62;84.63
74327;BME280;62745;51.060;13.786;2023-01-10T06:34:55;100221.00;;;5.62;84.87
74327;BME280;62745;51.060;13.786;2023-01-10T06:37:21;100226.63;;;5.59;84.57
74327;BME280;62745;51.060;13.786;2023-01-10T06:39:46;100222.84;;;5.70;84.53
74327;BME280;62745;51.060;13.786;2023-01-10T06:42:11;100241.06;;;5.65;84.87
74327;BME280;62745;51.060;13.786;2023-01-10T06:44:37;100239.22;;;5.65;84.25
74327;BME280;62745;51.060;13.786;2023-01-10T06:47:02;100244.22;;;5.68;84.80
74327;BME280;62745;51.060;13.786;2023-01-10T06:49:27;100258.13;;;5.70;84.34
74327;BME280;62745;51.060;13.786;2023-01-10T06:51:53;100257.94;;;5.64;84.51
74327;BME280;62745;51.060;13.786;2023-01-10T06:54:19;100266.06;;;5.62;84.57
74327;BME280;62745;51.060;13.786;2023-01-10T06:56:46;100265.13;;;5.71;84.69
74327;BME280;62745;51.060;13.786;2023-01-10T06:59:12;100267.22;;;5.68;84.23
74327;BME280;62745;51.060;13.786;2023-01-10T07:01:37;100283.66;;;5.71;84.18
74327;BME280;62745;51.060;13.786;2023-01-10T07:04:03;100290.75;;;5.71;83.62
74327;BME280;62745;51.060;13.786;2023-01-10T07:06:28;100288.75;;;5.57;84.22
74327;BME280;62745;51.060;13.786;2023-01-10T07:08:53;100292.41;;;5.64;83.71
74327;BME280;62745;51.060;13.786;2023-01-10T07:11:19;100297.53;;;5.65;84.17
74327;BME280;62745;51.060;13.786;2023-01-10T07:13:44;100294.53;;;5.60;83.73
74327;BME280;62745;51.060;13.786;2023-01-10T07:16:11;100311.28;;;5.69;84.07
74327;BME280;62745;51.060;13.786;2023-01-10T07:18:39;100316.09;;;5.65;84.29
74327;BME280;62745;51.060;13.786;2023-01-10T07:21:05;100318.41;;;5.60;85.03
74327;BME280;62745;51.060;13.786;2023-01-10T07:23:30;100318.03;;;5.55;86.23
74327;BME280;62745;51.060;13.786;2023-01-10T07:26:07;100324.94;;;5.48;86.59
74327;BME280;62745;51.060;13.786;2023-01-10T07:28:33;100336.72;;;5.54;86.79
74327;BME280;62745;51.060;13.786;2023-01-10T07:31:03;100336.38;;;5.49;86.09
74327;BME280;62745;51.060;13.786;2023-01-10T07:33:29;100336.06;;;5.52;86.68
74327;BME280;62745;51.060;13.786;2023-01-10T07:35:55;100338.19;;;5.48;86.36
74327;BME280;62745;51.060;13.786;2023-01-10T07:38:20;100353.78;;;5.51;86.18
74327;BME280;62745;51.060;13.786;2023-01-10T07:40:45;100348.03;;;5.56;86.23
74327;BME280;62745;51.060;13.786;2023-01-10T07:43:10;100355.44;;;5.52;85.71
74327;BME280;62745;51.060;13.786;2023-01-10T07:45:36;100368.06;;;5.58;86.20
74327;BME280;62745;51.060;13.786;2023-01-10T07:48:03;100364.38;;;5.51;86.33
74327;BME280;62745;51.060;13.786;2023-01-10T07:50:30;100375.78;;;5.52;86.94
74327;BME280;62745;51.060;13.786;2023-01-10T07:52:58;100374.28;;;5.49;86.95
74327;BME280;62745;51.060;13.786;2023-01-10T07:55:24;100383.38;;;5.47;87.13
74327;BME280;62745;51.060;13.786;2023-01-10T07:57:49;100379.75;;;5.48;87.61
74327;BME280;62745;51.060;13.786;2023-01-10T08:00:16;100388.03;;;5.44;87.28
74327;BME280;62745;51.060;13.786;2023-01-10T08:02:41;100381.25;;;5.50;87.66
74327;BME280;62745;51.060;13.786;2023-01-10T08:05:07;100383.31;;;5.56;87.78
74327;BME280;62745;51.060;13.786;2023-01-10T08:07:32;100392.91;;;5.57;87.17
74327;BME280;62745;51.060;13.786;2023-01-10T08:09:57;100396.00;;;5.53;87.37
74327;BME280;62745;51.060;13.786;2023-01-10T08:12:23;100402.00;;;5.55;87.41
74327;BME280;62745;51.060;13.786;2023-01-10T08:14:51;100403.19;;;5.60;87.21
74327;BME280;62745;51.060;13.786;2023-01-10T08:17:17;100413.44;;;5.55;86.64
74327;BME280;62745;51.060;13.786;2023-01-10T08:19:42;100410.47;;;5.58;86.98
74327;BME280;62745;51.060;13.786;2023-01-10T08:22:07;100424.38;;;5.60;86.65
74327;BME280;62745;51.060;13.786;2023-01-10T08:24:33;100425.41;;;5.67;87.20
74327;BME280;62745;51.060;13.786;2023-01-10T08:26:58;100415.28;;;5.63;86.48
74327;BME280;62745;51.060;13.786;2023-01-10T08:29:24;100428.38;;;5.64;86.50
74327;BME280;62745;51.060;13.786;2023-01-10T08:31:49;100428.19;;;5.58;86.54
74327;BME280;62745;51.060;13.786;2023-01-10T08:34:14;100431.72;;;5.66;86.14
74327;BME280;62745;51.060;13.786;2023-01-10T08:36:39;100441.31;;;5.67;86.17
74327;BME280;62745;51.060;13.786;2023-01-10T08:39:05;100442.97;;;5.68;86.64
74327;BME280;62745;51.060;13.786;2023-01-10T08:41:30;100448.94;;;5.70;86.80
74327;BME280;62745;51.060;13.786;2023-01-10T08:43:55;100448.94;;;5.70;86.39
74327;BME280;62745;51.060;13.786;2023-01-10T08:46:21;100451.31;;;5.73;86.28
74327;BME280;62745;51.060;13.786;2023-01-10T08:48:46;100452.69;;;5.86;85.93
74327;BME280;62745;51.060;13.786;2023-01-10T08:51:14;100453.53;;;5.86;85.58
74327;BME280;62745;51.060;13.786;2023-01-10T08:53:39;100460.78;;;5.76;85.94
74327;BME280;62745;51.060;13.786;2023-01-10T08:56:05;100461.59;;;5.77;86.09
74327;BME280;62745;51.060;13.786;2023-01-10T08:58:30;100465.09;;;5.77;86.01
74327;BME280;62745;51.060;13.786;2023-01-10T09:00:56;100475.69;;;5.77;86.46
74327;BME280;62745;51.060;13.786;2023-01-10T09:03:21;100479.66;;;5.73;86.44
74327;BME280;62745;51.060;13.786;2023-01-10T09:05:46;100485.09;;;5.71;86.24
74327;BME280;62745;51.060;13.786;2023-01-10T09:08:11;100479.84;;;5.80;86.35
74327;BME280;62745;51.060;13.786;2023-01-10T09:10:37;100485.28;;;5.96;85.62
74327;BME280;62745;51.060;13.786;2023-01-10T09:13:02;100484.22;;;5.89;85.56
74327;BME280;62745;51.060;13.786;2023-01-10T09:15:34;100495.28;;;5.84;85.18
74327;BME280;62745;51.060;13.786;2023-01-10T09:18:02;100489.97;;;5.84;85.01
74327;BME280;62745;51.060;13.786;2023-01-10T09:20:33;100508.78;;;5.91;84.56
74327;BME280;62745;51.060;13.786;2023-01-10T09:23:04;100518.44;;;6.00;84.49
74327;BME280;62745;51.060;13.786;2023-01-10T09:25:29;100520.25;;;5.99;84.22
74327;BME280;62745;51.060;13.786;2023-01-10T09:27:56;100522.91;;;5.99;83.79
74327;BME280;62745;51.060;13.786;2023-01-10T09:30:22;100530.41;;;6.04;83.66
74327;BME280;62745;51.060;13.786;2023-01-10T09:32:51;100539.25;;;6.13;84.17
74327;BME280;62745;51.060;13.786;2023-01-10T09:35:16;100537.59;;;6.12;82.99
74327;BME280;62745;51.060;13.786;2023-01-10T09:37:41;100548.34;;;6.10;83.28
74327;BME280;62745;51.060;13.786;2023-01-10T09:40:08;100543.94;;;5.93;86.66
74327;BME280;62745;51.060;13.786;2023-01-10T09:42:46;100552.94;;;5.64;89.06
74327;BME280;62745;51.060;13.786;2023-01-10T09:45:20;100549.00;;;5.51;90.50
74327;BME280;62745;51.060;13.786;2023-01-10T09:47:57;100558.88;;;5.40;91.66
74327;BME280;62745;51.060;13.786;2023-01-10T09:53:01;100553.63;;;5.31;94.22
74327;BME280;62745;51.060;13.786;2023-01-10T09:55:30;100554.56;;;5.22;93.69
74327;BME280;62745;51.060;13.786;2023-01-10T09:58:31;100557.88;;;5.24;94.69
74327;BME280;62745;51.060;13.786;2023-01-10T10:00:56;100552.13;;;5.28;95.89
74327;BME280;62745;51.060;13.786;2023-01-10T10:03:40;100563.09;;;5.33;95.62
74327;BME280;62745;51.060;13.786;2023-01-10T10:06:11;100558.03;;;5.76;94.67
74327;BME280;62745;51.060;13.786;2023-01-10T10:08:38;100556.91;;;5.60;95.06
74327;BME280;62745;51.060;13.786;2023-01-10T10:14:10;100562.50;;;5.75;93.91
74327;BME280;62745;51.060;13.786;2023-01-10T10:19:51;100566.56;;;6.05;94.55
74327;BME280;62745;51.060;13.786;2023-01-10T10:22:37;100570.25;;;6.12;93.88
74327;BME280;62745;51.060;13.786;2023-01-10T10:28:32;100559.84;;;6.19;94.11
74327;BME280;62745;51.060;13.786;2023-01-10T10:36:37;100558.75;;;5.86;93.58
74327;BME280;62745;51.060;13.786;2023-01-10T10:39:05;100557.06;;;6.02;93.02
74327;BME280;62745;51.060;13.786;2023-01-10T10:41:39;100565.09;;;6.11;93.32
74327;BME280;62745;51.060;13.786;2023-01-10T10:44:21;100565.22;;;6.27;92.99
74327;BME280;62745;51.060;13.786;2023-01-10T10:46:49;100573.88;;;6.11;91.60
74327;BME280;62745;51.060;13.786;2023-01-10T10:49:35;100559.69;;;6.20;90.66
74327;BME280;62745;51.060;13.786;2023-01-10T10:52:08;100567.94;;;6.17;89.60
74327;BME280;62745;51.060;13.786;2023-01-10T10:54:36;100565.09;;;6.11;87.50
74327;BME280;62745;51.060;13.786;2023-01-10T10:57:01;100561.31;;;6.13;86.13
74327;BME280;62745;51.060;13.786;2023-01-10T10:59:27;100576.75;;;6.18;86.43
74327;BME280;62745;51.060;13.786;2023-01-10T11:01:52;100582.56;;;6.21;85.27
74327;BME280;62745;51.060;13.786;2023-01-10T11:04:21;100571.75;;;6.15;84.53
74327;BME280;62745;51.060;13.786;2023-01-10T11:06:47;100582.19;;;6.16;84.12
74327;BME280;62745;51.060;13.786;2023-01-10T11:09:15;100587.34;;;6.18;83.83
74327;BME280;62745;51.060;13.786;2023-01-10T11:11:46;100585.38;;;6.20;84.44
74327;BME280;62745;51.060;13.786;2023-01-10T11:14:14;100586.47;;;6.35;84.89
74327;BME280;62745;51.060;13.786;2023-01-10T11:16:41;100590.94;;;6.34;84.87
74327;BME280;62745;51.060;13.786;2023-01-10T11:19:25;100593.75;;;6.33;83.43
74327;BME280;62745;51.060;13.786;2023-01-10T11:21:59;100586.31;;;6.37;83.54
74327;BME280;62745;51.060;13.786;2023-01-10T11:24:34;100595.66;;;6.41;84.09
74327;BME280;62745;51.060;13.786;2023-01-10T11:27:17;100606.63;;;6.54;83.88
74327;BME280;62745;51.060;13.786;2023-01-10T11:29:48;100604.81;;;6.54;84.27
74327;BME280;62745;51.060;13.786;2023-01-10T11:32:16;100606.28;;;6.49;83.44
74327;BME280;62745;51.060;13.786;2023-01-10T11:34:49;100607.78;;;6.51;83.24
74327;BME280;62745;51.060;13.786;2023-01-10T11:37:22;100611.66;;;6.57;82.96
74327;BME280;62745;51.060;13.786;2023-01-10T11:42:34;100597.41;;;6.58;82.20
74327;BME280;62745;51.060;13.786;2023-01-10T11:47:55;100592.13;;;6.66;81.13
74327;BME280;62745;51.060;13.786;2023-01-10T11:50:23;100585.38;;;6.80;82.25
74327;BME280;62745;51.060;13.786;2023-01-10T11:52:50;100584.44;;;6.89;81.16
74327;BME280;62745;51.060;13.786;2023-01-10T11:55:20;100590.25;;;6.92;80.80
74327;BME280;62745;51.060;13.786;2023-01-10T11:57:58;100603.22;;;6.96;80.67
74327;BME280;62745;51.060;13.786;2023-01-10T12:00:32;100600.06;;;6.92;79.44
74327;BME280;62745;51.060;13.786;2023-01-10T12:02:58;100614.50;;;6.98;80.39
74327;BME280;62745;51.060;13.786;2023-01-10T12:05:25;100615.88;;;7.10;79.74
74327;BME280;62745;51.060;13.786;2023-01-10T12:08:01;100616.66;;;7.02;78.68
74327;BME280;62745;51.060;13.786;2023-01-10T12:10:34;100612.69;;;6.98;78.78
74327;BME280;62745;51.060;13.786;2023-01-10T12:13:14;100613.69;;;7.05;78.37
74327;BME280;62745;51.060;13.786;2023-01-10T12:15:40;100618.72;;;7.16;78.42
74327;BME280;62745;51.060;13.786;2023-01-10T12:18:06;100616.88;;;7.09;77.52
74327;BME280;62745;51.060;13.786;2023-01-10T12:20:35;100620.88;;;7.13;78.02
74327;BME280;62745;51.060;13.786;2023-01-10T12:23:12;100625.56;;;7.27;79.11
74327;BME280;62745;51.060;13.786;2023-01-10T12:25:41;100635.69;;;7.23;76.87
74327;BME280;62745;51.060;13.786;2023-01-10T12:28:33;100628.19;;;7.11;76.65
74327;BME280;62745;51.060;13.786;2023-01-10T12:31:01;100627.97;;;7.04;76.73
74327;BME280;62745;51.060;13.786;2023-01-10T12:33:33;100637.47;;;7.07;75.59
74327;BME280;62745;51.060;13.786;2023-01-10T12:36:22;100632.34;;;7.13;75.44
74327;BME280;62745;51.060;13.786;2023-01-10T12:39:05;100643.47;;;7.17;75.50
74327;BME280;62745;51.060;13.786;2023-01-10T12:44:44;100643.50;;;7.25;74.63
74327;BME280;62745;51.060;13.786;2023-01-10T12:49:50;100637.66;;;7.21;74.54
74327;BME280;62745;51.060;13.786;2023-01-10T12:54:51;100651.31;;;7.35;75.47
74327;BME280;62745;51.060;13.786;2023-01-10T12:57:24;100655.44;;;7.21;74.22
74327;BME280;62745;51.060;13.786;2023-01-10T12:59:52;100650.31;;;7.28;74.17
74327;BME280;62745;51.060;13.786;2023-01-10T13:02:22;100658.31;;;7.36;73.57
74327;BME280;62745;51.060;13.786;2023-01-10T13:04:52;100663.13;;;7.32;74.01
74327;BME280;62745;51.060;13.786;2023-01-10T13:07:22;100666.09;;;7.29;74.71
74327;BME280;62745;51.060;13.786;2023-01-10T13:09:50;100658.28;;;7.28;74.75
74327;BME280;62745;51.060;13.786;2023-01-10T13:12:29;100652.66;;;7.31;75.06
74327;BME280;62745;51.060;13.786;2023-01-10T13:15:29;100658.63;;;7.24;74.16
74327;BME280;62745;51.060;13.786;2023-01-10T13:18:03;100665.94;;;7.31;74.72
74327;BME280;62745;51.060;13.786;2023-01-10T13:20:36;100666.94;;;7.30;74.71
74327;BME280;62745;51.060;13.786;2023-01-10T13:23:12;100669.53;;;7.21;74.45
74327;BME280;62745;51.060;13.786;2023-01-10T13:25:39;100672.75;;;7.25;73.92
74327;BME280;62745;51.060;13.786;2023-01-10T13:28:18;100676.72;;;7.29;73.32
74327;BME280;62745;51.060;13.786;2023-01-10T13:30:50;100668.09;;;7.35;73.68
74327;BME280;62745;51.060;13.786;2023-01-10T13:33:23;100674.78;;;7.39;73.45
74327;BME280;62745;51.060;13.786;2023-01-10T13:35:49;100681.56;;;7.34;73.13
74327;BME280;62745;51.060;13.786;2023-01-10T13:38:18;100675.06;;;7.28;73.44
74327;BME280;62745;51.060;13.786;2023-01-10T13:41:02;100676.50;;;7.14;72.49
74327;BME280;62745;51.060;13.786;2023-01-10T13:51:30;100694.66;;;6.93;72.16
74327;BME280;62745;51.060;13.786;2023-01-10T13:56:40;100711.47;;;7.02;72.17
74327;BME280;62745;51.060;13.786;2023-01-10T14:02:22;100727.38;;;6.93;72.43
74327;BME280;62745;51.060;13.786;2023-01-10T14:05:01;100721.91;;;6.95;71.97
74327;BME280;62745;51.060;13.786;2023-01-10T14:07:31;100708.28;;;6.98;72.00